sensor_id;sensor_type;location;lat;lon;timestamp;temperature;humidity
20528;DHT22;23612;50.894;10.700;2022-09-09T00:01:49;14.30;99.90
20528;DHT22;23612;50.894;10.700;2022-09-09T00:03:57;14.30;99.90
20528;DHT22;23612;50.894;10.700;2022-09-09T00:06:33;14.30;99.90
20528;DHT22;23612;50.894;10.700;2022-09-09T00:09:17;14.30;99.90
20528;DHT22;23612;50.894;10.700;2022-09-09T00:14:54;14.30;99.90
20528;DHT22;23612;50.894;10.700;2022-09-09T00:20:13;14.30;99.90
20528;DHT22;23612;50.894;10.700;2022-09-09T00:22:51;14.30;99.90
20528;DHT22;23612;50.894;10.700;2022-09-09T00:25:40;14.20;99.90
20528;DHT22;23612;50.894;10.700;2022-09-09T00:28:23;14.20;99.90
20528;DHT22;23612;50.894;10.700;2022-09-09T00:30:50;14.10;99.90
20528;DHT22;23612;50.894;10.700;2022-09-09T00:33:19;14.20;99.90
20528;DHT22;23612;50.894;10.700;2022-09-09T00:35:50;14.20;99.90
20528;DHT22;23612;50.894;10.700;2022-09-09T00:38:25;14.20;99.90
20528;DHT22;23612;50.894;10.700;2022-09-09T00:41:03;14.20;99.90
20528;DHT22;23612;50.894;10.700;2022-09-09T00:43:36;14.20;99.90
20528;DHT22;23612;50.894;10.700;2022-09-09T00:52:05;14.30;99.90
20528;DHT22;23612;50.894;10.700;2022-09-09T00:54:54;14.30;99.90
20528;DHT22;23612;50.894;10.700;2022-09-09T00:59:52;14.20;99.90
20528;DHT22;23612;50.894;10.700;2022-09-09T01:05:18;14.20;99.90
20528;DHT22;23612;50.894;10.700;2022-09-09T01:07:48;14.20;99.90
20528;DHT22;23612;50.894;10.700;2022-09-09T01:13:15;14.20;99.90
20528;DHT22;23612;50.894;10.700;2022-09-09T01:15:44;14.20;99.90
20528;DHT22;23612;50.894;10.700;2022-09-09T01:18:14;14.20;99.90
20528;DHT22;23612;50.894;10.700;2022-09-09T01:28:50;14.20;99.90
20528;DHT22;23612;50.894;10.700;2022-09-09T01:34:13;14.30;99.90
20528;DHT22;23612;50.894;10.700;2022-09-09T01:36:44;14.40;99.90
20528;DHT22;23612;50.894;10.700;2022-09-09T01:39:12;14.50;99.90
20528;DHT22;23612;50.894;10.700;2022-09-09T01:41:38;14.40;99.90
20528;DHT22;23612;50.894;10.700;2022-09-09T01:44:04;14.50;99.90
20528;DHT22;23612;50.894;10.700;2022-09-09T01:46:30;14.50;99.90
20528;DHT22;23612;50.894;10.700;2022-09-09T01:48:57;14.50;99.90
20528;DHT22;23612;50.894;10.700;2022-09-09T01:51:24;14.40;99.90
20528;DHT22;23612;50.894;10.700;2022-09-09T01:53:50;14.50;99.90
20528;DHT22;23612;50.894;10.700;2022-09-09T02:02:16;14.60;99.90
20528;DHT22;23612;50.894;10.700;2022-09-09T02:04:49;14.70;99.90
20528;DHT22;23612;50.894;10.700;2022-09-09T02:07:41;14.70;99.90
20528;DHT22;23612;50.894;10.700;2022-09-09T02:12:43;14.60;99.90
20528;DHT22;23612;50.894;10.700;2022-09-09T02:18:20;14.70;99.90
20528;DHT22;23612;50.894;10.700;2022-09-09T02:20:51;14.70;99.90
20528;DHT22;23612;50.894;10.700;2022-09-09T02:23:17;14.70;99.90
20528;DHT22;23612;50.894;10.700;2022-09-09T02:25:45;14.70;99.90
20528;DHT22;23612;50.894;10.700;2022-09-09T02:28:12;14.70;99.90
20528;DHT22;23612;50.894;10.700;2022-09-09T02:30:40;14.70;99.90
20528;DHT22;23612;50.894;10.700;2022-09-09T02:33:08;14.80;99.90
20528;DHT22;23612;50.894;10.700;2022-09-09T02:35:36;14.80;99.90
20528;DHT22;23612;50.894;10.700;2022-09-09T02:38:07;14.60;99.90
20528;DHT22;23612;50.894;10.700;2022-09-09T02:40:33;14.70;99.90
20528;DHT22;23612;50.894;10.700;2022-09-09T02:42:59;14.70;99.90
20528;DHT22;23612;50.894;10.700;2022-09-09T02:45:31;14.80;99.90
20528;DHT22;23612;50.894;10.700;2022-09-09T02:48:26;14.80;99.90
20528;DHT22;23612;50.894;10.700;2022-09-09T02:56:13;15.00;99.90
20528;DHT22;23612;50.894;10.700;2022-09-09T02:58:40;15.00;99.90
20528;DHT22;23612;50.894;10.700;2022-09-09T03:01:06;15.10;99.90
20528;DHT22;23612;50.894;10.700;2022-09-09T03:03:32;15.00;99.90
20528;DHT22;23612;50.894;10.700;2022-09-09T03:05:58;15.00;99.90
20528;DHT22;23612;50.894;10.700;2022-09-09T03:08:23;15.00;99.90
20528;DHT22;23612;50.894;10.700;2022-09-09T03:10:49;15.00;99.90
20528;DHT22;23612;50.894;10.700;2022-09-09T03:13:15;15.00;99.90
20528;DHT22;23612;50.894;10.700;2022-09-09T03:15:41;15.00;99.90
20528;DHT22;23612;50.894;10.700;2022-09-09T03:18:07;15.00;99.90
20528;DHT22;23612;50.894;10.700;2022-09-09T03:20:32;15.00;99.90
20528;DHT22;23612;50.894;10.700;2022-09-09T03:23:00;15.00;99.90
20528;DHT22;23612;50.894;10.700;2022-09-09T03:25:25;15.00;99.90
20528;DHT22;23612;50.894;10.700;2022-09-09T03:27:52;15.00;99.90
20528;DHT22;23612;50.894;10.700;2022-09-09T03:30:24;15.00;99.90
20528;DHT22;23612;50.894;10.700;2022-09-09T03:32:50;15.00;99.90
20528;DHT22;23612;50.894;10.700;2022-09-09T03:35:16;15.00;99.90
20528;DHT22;23612;50.894;10.700;2022-09-09T03:37:42;15.00;99.90
20528;DHT22;23612;50.894;10.700;2022-09-09T03:40:08;15.00;99.90
20528;DHT22;23612;50.894;10.700;2022-09-09T03:42:35;15.00;99.90
20528;DHT22;23612;50.894;10.700;2022-09-09T03:45:03;15.00;99.90
20528;DHT22;23612;50.894;10.700;2022-09-09T03:47:29;15.00;99.90
20528;DHT22;23612;50.894;10.700;2022-09-09T03:49:55;14.90;99.90
20528;DHT22;23612;50.894;10.700;2022-09-09T03:52:20;14.90;99.90
20528;DHT22;23612;50.894;10.700;2022-09-09T03:54:47;14.90;99.90
20528;DHT22;23612;50.894;10.700;2022-09-09T03:57:13;14.90;99.90
20528;DHT22;23612;50.894;10.700;2022-09-09T03:59:42;14.80;99.90
20528;DHT22;23612;50.894;10.700;2022-09-09T04:02:07;14.70;99.90
20528;DHT22;23612;50.894;10.700;2022-09-09T04:04:34;14.70;99.90
20528;DHT22;23612;50.894;10.700;2022-09-09T04:06:59;14.70;99.90
20528;DHT22;23612;50.894;10.700;2022-09-09T04:09:25;14.70;99.90
20528;DHT22;23612;50.894;10.700;2022-09-09T04:11:50;14.60;99.90
20528;DHT22;23612;50.894;10.700;2022-09-09T04:14:16;14.60;99.90
20528;DHT22;23612;50.894;10.700;2022-09-09T04:16:42;14.60;99.90
20528;DHT22;23612;50.894;10.700;2022-09-09T04:19:10;14.60;99.90
20528;DHT22;23612;50.894;10.700;2022-09-09T04:21:38;14.50;99.90
20528;DHT22;23612;50.894;10.700;2022-09-09T04:24:05;14.40;99.90
20528;DHT22;23612;50.894;10.700;2022-09-09T04:26:31;14.40;99.90
20528;DHT22;23612;50.894;10.700;2022-09-09T04:28:56;14.50;99.90
20528;DHT22;23612;50.894;10.700;2022-09-09T04:31:22;14.40;99.90
20528;DHT22;23612;50.894;10.700;2022-09-09T04:33:49;14.40;99.90
20528;DHT22;23612;50.894;10.700;2022-09-09T04:36:15;14.40;99.90
20528;DHT22;23612;50.894;10.700;2022-09-09T04:38:41;14.40;99.90
20528;DHT22;23612;50.894;10.700;2022-09-09T04:41:07;14.40;99.90
20528;DHT22;23612;50.894;10.700;2022-09-09T04:43:33;14.40;99.90
20528;DHT22;23612;50.894;10.700;2022-09-09T04:45:59;14.50;99.90
20528;DHT22;23612;50.894;10.700;2022-09-09T04:48:25;14.50;99.90
20528;DHT22;23612;50.894;10.700;2022-09-09T04:51:09;14.50;99.90
20528;DHT22;23612;50.894;10.700;2022-09-09T04:53:35;14.50;99.90
20528;DHT22;23612;50.894;10.700;2022-09-09T04:58:35;14.50;99.90
20528;DHT22;23612;50.894;10.700;2022-09-09T05:01:10;14.40;99.90
20528;DHT22;23612;50.894;10.700;2022-09-09T05:03:35;14.30;99.90
20528;DHT22;23612;50.894;10.700;2022-09-09T05:06:19;14.30;99.90
20528;DHT22;23612;50.894;10.700;2022-09-09T05:08:44;14.30;99.90
20528;DHT22;23612;50.894;10.700;2022-09-09T05:11:27;14.30;99.90
20528;DHT22;23612;50.894;10.700;2022-09-09T05:13:53;14.20;99.90
20528;DHT22;23612;50.894;10.700;2022-09-09T05:16:19;14.20;99.90
20528;DHT22;23612;50.894;10.700;2022-09-09T05:18:45;14.20;99.90
20528;DHT22;23612;50.894;10.700;2022-09-09T05:21:12;14.20;99.90
20528;DHT22;23612;50.894;10.700;2022-09-09T05:23:38;14.10;99.90
20528;DHT22;23612;50.894;10.700;2022-09-09T05:26:04;14.10;99.90
20528;DHT22;23612;50.894;10.700;2022-09-09T05:28:30;14.20;99.90
20528;DHT22;23612;50.894;10.700;2022-09-09T05:31:03;14.20;99.90
20528;DHT22;23612;50.894;10.700;2022-09-09T05:33:30;14.10;99.90
20528;DHT22;23612;50.894;10.700;2022-09-09T05:35:58;14.20;99.90
20528;DHT22;23612;50.894;10.700;2022-09-09T05:38:24;14.20;99.90
20528;DHT22;23612;50.894;10.700;2022-09-09T05:40:50;14.20;99.90
20528;DHT22;23612;50.894;10.700;2022-09-09T05:43:18;14.30;99.90
20528;DHT22;23612;50.894;10.700;2022-09-09T05:45:45;14.30;99.90
20528;DHT22;23612;50.894;10.700;2022-09-09T05:48:11;14.40;99.90
20528;DHT22;23612;50.894;10.700;2022-09-09T05:50:37;14.50;99.90
20528;DHT22;23612;50.894;10.700;2022-09-09T05:53:02;14.60;99.90
20528;DHT22;23612;50.894;10.700;2022-09-09T05:55:29;14.70;99.90
20528;DHT22;23612;50.894;10.700;2022-09-09T05:57:54;14.90;99.90
20528;DHT22;23612;50.894;10.700;2022-09-09T06:00:19;15.00;99.90
20528;DHT22;23612;50.894;10.700;2022-09-09T06:02:51;15.10;99.90
20528;DHT22;23612;50.894;10.700;2022-09-09T06:05:18;15.20;99.90
20528;DHT22;23612;50.894;10.700;2022-09-09T06:07:43;15.30;99.90
20528;DHT22;23612;50.894;10.700;2022-09-09T06:10:10;15.50;99.90
20528;DHT22;23612;50.894;10.700;2022-09-09T06:12:36;15.60;99.90
20528;DHT22;23612;50.894;10.700;2022-09-09T06:15:01;15.80;99.90
20528;DHT22;23612;50.894;10.700;2022-09-09T06:17:27;16.00;99.90
20528;DHT22;23612;50.894;10.700;2022-09-09T06:19:53;16.10;99.90
20528;DHT22;23612;50.894;10.700;2022-09-09T06:22:19;16.10;99.90
20528;DHT22;23612;50.894;10.700;2022-09-09T06:24:44;16.20;99.90
20528;DHT22;23612;50.894;10.700;2022-09-09T06:27:10;16.20;99.90
20528;DHT22;23612;50.894;10.700;2022-09-09T06:29:36;16.30;99.90
20528;DHT22;23612;50.894;10.700;2022-09-09T06:32:02;16.40;99.90
20528;DHT22;23612;50.894;10.700;2022-09-09T06:34:28;16.50;99.90
20528;DHT22;23612;50.894;10.700;2022-09-09T06:36:54;16.50;99.90
20528;DHT22;23612;50.894;10.700;2022-09-09T06:39:19;16.50;99.90
20528;DHT22;23612;50.894;10.700;2022-09-09T06:41:45;16.30;99.90
20528;DHT22;23612;50.894;10.700;2022-09-09T06:44:10;16.50;99.90
20528;DHT22;23612;50.894;10.700;2022-09-09T06:46:37;17.30;99.90
20528;DHT22;23612;50.894;10.700;2022-09-09T06:49:03;18.30;99.90
20528;DHT22;23612;50.894;10.700;2022-09-09T06:51:31;19.30;99.90
20528;DHT22;23612;50.894;10.700;2022-09-09T06:53:59;20.60;99.90
20528;DHT22;23612;50.894;10.700;2022-09-09T06:56:25;21.80;99.90
20528;DHT22;23612;50.894;10.700;2022-09-09T06:58:52;22.20;99.90
20528;DHT22;23612;50.894;10.700;2022-09-09T07:01:20;23.00;99.90
20528;DHT22;23612;50.894;10.700;2022-09-09T07:03:48;22.50;99.90
20528;DHT22;23612;50.894;10.700;2022-09-09T07:06:34;21.60;99.90
20528;DHT22;23612;50.894;10.700;2022-09-09T07:09:08;21.50;99.90
20528;DHT22;23612;50.894;10.700;2022-09-09T07:11:50;21.40;99.90
20528;DHT22;23612;50.894;10.700;2022-09-09T07:14:18;22.10;99.90
20528;DHT22;23612;50.894;10.700;2022-09-09T07:16:45;23.30;99.90
20528;DHT22;23612;50.894;10.700;2022-09-09T07:19:11;24.30;99.90
20528;DHT22;23612;50.894;10.700;2022-09-09T07:21:38;24.50;99.90
20528;DHT22;23612;50.894;10.700;2022-09-09T07:24:05;25.10;99.90
20528;DHT22;23612;50.894;10.700;2022-09-09T07:26:33;25.50;99.90
20528;DHT22;23612;50.894;10.700;2022-09-09T07:28:58;25.70;99.90
20528;DHT22;23612;50.894;10.700;2022-09-09T07:31:26;25.30;99.90
20528;DHT22;23612;50.894;10.700;2022-09-09T07:33:53;25.60;99.90
20528;DHT22;23612;50.894;10.700;2022-09-09T07:36:27;26.10;99.90
20528;DHT22;23612;50.894;10.700;2022-09-09T07:38:58;26.10;99.90
20528;DHT22;23612;50.894;10.700;2022-09-09T07:41:27;25.80;99.90
20528;DHT22;23612;50.894;10.700;2022-09-09T07:43:53;25.60;99.90
20528;DHT22;23612;50.894;10.700;2022-09-09T07:46:21;25.50;99.90
20528;DHT22;23612;50.894;10.700;2022-09-09T07:48:51;25.30;99.90
20528;DHT22;23612;50.894;10.700;2022-09-09T07:51:20;25.10;99.90
20528;DHT22;23612;50.894;10.700;2022-09-09T07:53:48;25.20;99.90
20528;DHT22;23612;50.894;10.700;2022-09-09T07:56:16;25.40;99.90
20528;DHT22;23612;50.894;10.700;2022-09-09T07:58:44;25.30;99.90
20528;DHT22;23612;50.894;10.700;2022-09-09T08:01:17;25.60;99.90
20528;DHT22;23612;50.894;10.700;2022-09-09T08:03:46;25.60;99.90
20528;DHT22;23612;50.894;10.700;2022-09-09T08:06:13;25.70;99.90
20528;DHT22;23612;50.894;10.700;2022-09-09T08:08:39;25.40;99.90
20528;DHT22;23612;50.894;10.700;2022-09-09T08:11:12;24.60;99.90
20528;DHT22;23612;50.894;10.700;2022-09-09T08:13:41;23.50;99.90
20528;DHT22;23612;50.894;10.700;2022-09-09T08:16:12;23.10;99.90
20528;DHT22;23612;50.894;10.700;2022-09-09T08:18:38;23.80;99.90
20528;DHT22;23612;50.894;10.700;2022-09-09T08:21:14;24.80;99.90
20528;DHT22;23612;50.894;10.700;2022-09-09T08:23:44;25.10;99.90
20528;DHT22;23612;50.894;10.700;2022-09-09T08:26:16;26.10;99.90
20528;DHT22;23612;50.894;10.700;2022-09-09T08:28:42;26.80;99.90
20528;DHT22;23612;50.894;10.700;2022-09-09T08:31:16;26.50;99.90
20528;DHT22;23612;50.894;10.700;2022-09-09T08:33:43;25.70;99.90
20528;DHT22;23612;50.894;10.700;2022-09-09T08:36:12;25.30;99.90
20528;DHT22;23612;50.894;10.700;2022-09-09T08:38:38;24.50;99.90
20528;DHT22;23612;50.894;10.700;2022-09-09T08:41:31;23.80;99.90
20528;DHT22;23612;50.894;10.700;2022-09-09T08:47:08;21.90;99.90
20528;DHT22;23612;50.894;10.700;2022-09-09T08:50:00;21.10;99.90
20528;DHT22;23612;50.894;10.700;2022-09-09T08:55:35;21.60;99.90
20528;DHT22;23612;50.894;10.700;2022-09-09T08:58:14;21.70;99.90
20528;DHT22;23612;50.894;10.700;2022-09-09T09:01:10;21.80;99.90
20528;DHT22;23612;50.894;10.700;2022-09-09T09:11:51;21.30;99.90
20528;DHT22;23612;50.894;10.700;2022-09-09T09:14:23;21.70;99.90
20528;DHT22;23612;50.894;10.700;2022-09-09T09:17:00;22.90;99.90
20528;DHT22;23612;50.894;10.700;2022-09-09T09:19:28;24.00;99.90
20528;DHT22;23612;50.894;10.700;2022-09-09T09:22:05;23.70;99.90
20528;DHT22;23612;50.894;10.700;2022-09-09T09:27:38;22.90;99.90
20528;DHT22;23612;50.894;10.700;2022-09-09T09:30:20;22.50;99.90
20528;DHT22;23612;50.894;10.700;2022-09-09T09:35:38;21.80;99.90
20528;DHT22;23612;50.894;10.700;2022-09-09T09:38:19;21.40;99.90
20528;DHT22;23612;50.894;10.700;2022-09-09T09:41:05;21.30;99.90
20528;DHT22;23612;50.894;10.700;2022-09-09T09:43:36;21.30;99.90
20528;DHT22;23612;50.894;10.700;2022-09-09T09:46:05;21.20;99.90
20528;DHT22;23612;50.894;10.700;2022-09-09T09:48:43;21.10;99.90
20528;DHT22;23612;50.894;10.700;2022-09-09T09:51:11;21.00;99.90
20528;DHT22;23612;50.894;10.700;2022-09-09T09:53:38;20.80;99.90
20528;DHT22;23612;50.894;10.700;2022-09-09T09:56:07;21.00;99.90
20528;DHT22;23612;50.894;10.700;2022-09-09T09:58:47;21.00;99.90
20528;DHT22;23612;50.894;10.700;2022-09-09T10:01:29;20.90;99.90
20528;DHT22;23612;50.894;10.700;2022-09-09T10:04:15;20.80;99.90
20528;DHT22;23612;50.894;10.700;2022-09-09T10:06:46;21.60;99.90
20528;DHT22;23612;50.894;10.700;2022-09-09T10:09:23;22.60;99.90
20528;DHT22;23612;50.894;10.700;2022-09-09T10:12:41;23.20;99.90
20528;DHT22;23612;50.894;10.700;2022-09-09T10:20:28;25.00;99.90
20528;DHT22;23612;50.894;10.700;2022-09-09T10:26:19;25.80;99.90
20528;DHT22;23612;50.894;10.700;2022-09-09T10:29:38;26.20;99.90
20528;DHT22;23612;50.894;10.700;2022-09-09T10:35:21;26.70;99.90
20528;DHT22;23612;50.894;10.700;2022-09-09T10:46:24;26.90;99.90
20528;DHT22;23612;50.894;10.700;2022-09-09T10:49:03;27.10;99.90
20528;DHT22;23612;50.894;10.700;2022-09-09T10:54:36;26.60;99.90
20528;DHT22;23612;50.894;10.700;2022-09-09T10:57:17;26.00;99.90
20528;DHT22;23612;50.894;10.700;2022-09-09T10:59:50;24.90;99.90
20528;DHT22;23612;50.894;10.700;2022-09-09T11:02:27;23.80;99.90
20528;DHT22;23612;50.894;10.700;2022-09-09T11:05:00;22.80;99.90
20528;DHT22;23612;50.894;10.700;2022-09-09T11:07:34;22.20;99.90
20528;DHT22;23612;50.894;10.700;2022-09-09T11:10:11;21.90;99.90
20528;DHT22;23612;50.894;10.700;2022-09-09T11:12:39;21.40;99.90
20528;DHT22;23612;50.894;10.700;2022-09-09T11:15:17;21.20;99.90
20528;DHT22;23612;50.894;10.700;2022-09-09T11:17:50;20.90;99.90
20528;DHT22;23612;50.894;10.700;2022-09-09T11:20:17;20.60;99.90
20528;DHT22;23612;50.894;10.700;2022-09-09T11:22:44;20.40;99.90
20528;DHT22;23612;50.894;10.700;2022-09-09T11:25:21;20.10;99.90
20528;DHT22;23612;50.894;10.700;2022-09-09T11:38:56;19.10;99.90
20528;DHT22;23612;50.894;10.700;2022-09-09T11:41:36;19.10;99.90
20528;DHT22;23612;50.894;10.700;2022-09-09T11:44:17;19.30;99.90
20528;DHT22;23612;50.894;10.700;2022-09-09T11:46:48;19.60;99.90
20528;DHT22;23612;50.894;10.700;2022-09-09T11:49:41;20.50;99.90
20528;DHT22;23612;50.894;10.700;2022-09-09T11:54:48;21.90;99.90
20528;DHT22;23612;50.894;10.700;2022-09-09T11:57:32;22.70;99.90
20528;DHT22;23612;50.894;10.700;2022-09-09T11:59:59;24.00;99.90
20528;DHT22;23612;50.894;10.700;2022-09-09T12:02:28;25.10;99.90
20528;DHT22;23612;50.894;10.700;2022-09-09T12:05:06;25.90;99.90
20528;DHT22;23612;50.894;10.700;2022-09-09T12:07:51;26.30;99.90
20528;DHT22;23612;50.894;10.700;2022-09-09T12:10:30;26.50;99.90
20528;DHT22;23612;50.894;10.700;2022-09-09T12:13:20;26.50;99.90
20528;DHT22;23612;50.894;10.700;2022-09-09T12:15:50;26.10;99.90
20528;DHT22;23612;50.894;10.700;2022-09-09T12:18:35;26.00;99.90
20528;DHT22;23612;50.894;10.700;2022-09-09T12:21:21;25.40;99.90
20528;DHT22;23612;50.894;10.700;2022-09-09T12:23:55;25.50;99.90
20528;DHT22;23612;50.894;10.700;2022-09-09T12:26:43;26.30;97.60
20528;DHT22;23612;50.894;10.700;2022-09-09T12:29:36;26.30;95.80
20528;DHT22;23612;50.894;10.700;2022-09-09T12:32:11;25.30;97.30
20528;DHT22;23612;50.894;10.700;2022-09-09T12:34:59;24.20;99.90
20528;DHT22;23612;50.894;10.700;2022-09-09T12:38:01;23.20;99.90
20528;DHT22;23612;50.894;10.700;2022-09-09T12:40:32;23.50;99.90
20528;DHT22;23612;50.894;10.700;2022-09-09T12:43:01;24.60;99.90
20528;DHT22;23612;50.894;10.700;2022-09-09T12:45:30;25.70;99.90
20528;DHT22;23612;50.894;10.700;2022-09-09T12:48:07;25.90;99.90
20528;DHT22;23612;50.894;10.700;2022-09-09T12:50:42;26.30;99.90
20528;DHT22;23612;50.894;10.700;2022-09-09T12:53:15;26.30;99.90
20528;DHT22;23612;50.894;10.700;2022-09-09T12:56:18;26.40;99.90
20528;DHT22;23612;50.894;10.700;2022-09-09T12:58:47;26.00;99.90
20528;DHT22;23612;50.894;10.700;2022-09-09T13:01:23;25.80;99.90
20528;DHT22;23612;50.894;10.700;2022-09-09T13:03:49;25.70;99.90
20528;DHT22;23612;50.894;10.700;2022-09-09T13:06:23;25.60;99.90
20528;DHT22;23612;50.894;10.700;2022-09-09T13:08:51;25.80;99.90
20528;DHT22;23612;50.894;10.700;2022-09-09T13:11:22;25.90;97.80
20528;DHT22;23612;50.894;10.700;2022-09-09T13:13:54;25.70;96.80
20528;DHT22;23612;50.894;10.700;2022-09-09T13:16:29;25.30;97.90
20528;DHT22;23612;50.894;10.700;2022-09-09T13:18:59;24.80;98.30
20528;DHT22;23612;50.894;10.700;2022-09-09T13:21:36;24.60;98.60
20528;DHT22;23612;50.894;10.700;2022-09-09T13:24:04;24.50;98.50
20528;DHT22;23612;50.894;10.700;2022-09-09T13:26:33;24.70;98.30
20528;DHT22;23612;50.894;10.700;2022-09-09T13:29:18;24.70;98.10
20528;DHT22;23612;50.894;10.700;2022-09-09T13:31:45;24.50;98.70
20528;DHT22;23612;50.894;10.700;2022-09-09T13:34:28;24.30;98.90
20528;DHT22;23612;50.894;10.700;2022-09-09T13:37:01;24.30;99.80
20528;DHT22;23612;50.894;10.700;2022-09-09T13:39:28;24.10;99.90
20528;DHT22;23612;50.894;10.700;2022-09-09T13:41:54;24.00;99.90
20528;DHT22;23612;50.894;10.700;2022-09-09T13:44:35;23.80;99.90
20528;DHT22;23612;50.894;10.700;2022-09-09T13:47:05;23.50;99.90
20528;DHT22;23612;50.894;10.700;2022-09-09T13:49:31;23.50;99.90
20528;DHT22;23612;50.894;10.700;2022-09-09T13:52:10;23.20;99.90
20528;DHT22;23612;50.894;10.700;2022-09-09T13:54:36;23.20;99.90
20528;DHT22;23612;50.894;10.700;2022-09-09T13:57:02;23.20;99.90
20528;DHT22;23612;50.894;10.700;2022-09-09T13:59:29;23.20;99.90
20528;DHT22;23612;50.894;10.700;2022-09-09T14:01:55;23.30;99.90
20528;DHT22;23612;50.894;10.700;2022-09-09T14:04:20;23.20;99.90
20528;DHT22;23612;50.894;10.700;2022-09-09T14:06:46;23.00;99.90
20528;DHT22;23612;50.894;10.700;2022-09-09T14:09:14;22.70;99.90
20528;DHT22;23612;50.894;10.700;2022-09-09T14:11:40;22.30;99.90
20528;DHT22;23612;50.894;10.700;2022-09-09T14:14:06;22.30;99.90
20528;DHT22;23612;50.894;10.700;2022-09-09T14:16:32;22.20;99.90
20528;DHT22;23612;50.894;10.700;2022-09-09T14:18:58;22.10;99.90
20528;DHT22;23612;50.894;10.700;2022-09-09T14:21:24;22.00;99.90
20528;DHT22;23612;50.894;10.700;2022-09-09T14:23:50;21.80;99.90
20528;DHT22;23612;50.894;10.700;2022-09-09T14:26:16;21.40;99.90
20528;DHT22;23612;50.894;10.700;2022-09-09T14:28:45;21.30;99.90
20528;DHT22;23612;50.894;10.700;2022-09-09T14:31:10;21.20;99.90
20528;DHT22;23612;50.894;10.700;2022-09-09T14:33:36;21.40;99.90
20528;DHT22;23612;50.894;10.700;2022-09-09T14:36:03;21.50;99.90
20528;DHT22;23612;50.894;10.700;2022-09-09T14:38:30;21.60;99.90
20528;DHT22;23612;50.894;10.700;2022-09-09T14:40:56;21.70;99.90
20528;DHT22;23612;50.894;10.700;2022-09-09T14:43:24;21.80;99.90
20528;DHT22;23612;50.894;10.700;2022-09-09T14:45:49;21.70;99.90
20528;DHT22;23612;50.894;10.700;2022-09-09T14:48:16;21.70;99.90
20528;DHT22;23612;50.894;10.700;2022-09-09T14:50:42;21.60;99.90
20528;DHT22;23612;50.894;10.700;2022-09-09T14:53:08;21.30;99.90
20528;DHT22;23612;50.894;10.700;2022-09-09T14:55:35;21.20;99.90
20528;DHT22;23612;50.894;10.700;2022-09-09T14:58:00;21.10;99.90
20528;DHT22;23612;50.894;10.700;2022-09-09T15:00:26;21.10;99.90
20528;DHT22;23612;50.894;10.700;2022-09-09T15:02:53;21.00;99.90
20528;DHT22;23612;50.894;10.700;2022-09-09T15:05:18;20.90;99.90
20528;DHT22;23612;50.894;10.700;2022-09-09T15:07:44;20.90;99.90
20528;DHT22;23612;50.894;10.700;2022-09-09T15:10:10;20.90;99.90
20528;DHT22;23612;50.894;10.700;2022-09-09T15:12:36;20.70;99.90
20528;DHT22;23612;50.894;10.700;2022-09-09T15:15:02;20.70;99.90
20528;DHT22;23612;50.894;10.700;2022-09-09T15:17:28;20.60;99.90
20528;DHT22;23612;50.894;10.700;2022-09-09T15:19:54;20.30;99.90
20528;DHT22;23612;50.894;10.700;2022-09-09T15:22:20;20.10;99.90
20528;DHT22;23612;50.894;10.700;2022-09-09T15:24:45;19.90;99.90
20528;DHT22;23612;50.894;10.700;2022-09-09T15:27:11;19.70;99.90
20528;DHT22;23612;50.894;10.700;2022-09-09T15:29:36;19.70;99.90
20528;DHT22;23612;50.894;10.700;2022-09-09T15:32:03;19.70;99.90
20528;DHT22;23612;50.894;10.700;2022-09-09T15:34:29;19.50;99.90
20528;DHT22;23612;50.894;10.700;2022-09-09T15:36:54;19.50;99.90
20528;DHT22;23612;50.894;10.700;2022-09-09T15:39:20;19.60;99.90
20528;DHT22;23612;50.894;10.700;2022-09-09T15:41:47;19.70;99.90
20528;DHT22;23612;50.894;10.700;2022-09-09T15:44:13;19.70;99.90
20528;DHT22;23612;50.894;10.700;2022-09-09T15:46:42;19.70;99.90
20528;DHT22;23612;50.894;10.700;2022-09-09T15:49:16;19.80;99.90
20528;DHT22;23612;50.894;10.700;2022-09-09T15:51:44;19.70;99.90
20528;DHT22;23612;50.894;10.700;2022-09-09T15:54:15;19.70;99.90
20528;DHT22;23612;50.894;10.700;2022-09-09T15:56:46;19.70;99.90
20528;DHT22;23612;50.894;10.700;2022-09-09T15:59:13;19.70;99.90
20528;DHT22;23612;50.894;10.700;2022-09-09T16:01:40;19.70;99.90
20528;DHT22;23612;50.894;10.700;2022-09-09T16:04:05;19.60;99.90
20528;DHT22;23612;50.894;10.700;2022-09-09T16:06:32;19.50;99.90
20528;DHT22;23612;50.894;10.700;2022-09-09T16:08:59;19.50;99.90
20528;DHT22;23612;50.894;10.700;2022-09-09T16:11:29;19.40;99.90
20528;DHT22;23612;50.894;10.700;2022-09-09T16:13:55;19.30;99.90
20528;DHT22;23612;50.894;10.700;2022-09-09T16:16:23;19.20;99.90
20528;DHT22;23612;50.894;10.700;2022-09-09T16:18:51;19.10;99.90
20528;DHT22;23612;50.894;10.700;2022-09-09T16:21:23;19.00;99.90
20528;DHT22;23612;50.894;10.700;2022-09-09T16:23:53;19.00;99.90
20528;DHT22;23612;50.894;10.700;2022-09-09T16:26:18;19.10;99.90
20528;DHT22;23612;50.894;10.700;2022-09-09T16:28:44;19.10;99.90
20528;DHT22;23612;50.894;10.700;2022-09-09T16:31:14;19.10;99.90
20528;DHT22;23612;50.894;10.700;2022-09-09T16:33:40;19.00;99.90
20528;DHT22;23612;50.894;10.700;2022-09-09T16:36:14;19.00;99.90
20528;DHT22;23612;50.894;10.700;2022-09-09T16:38:40;19.10;99.90
20528;DHT22;23612;50.894;10.700;2022-09-09T16:41:07;19.10;99.90
20528;DHT22;23612;50.894;10.700;2022-09-09T16:43:33;19.10;99.90
20528;DHT22;23612;50.894;10.700;2022-09-09T16:46:00;19.10;99.90
20528;DHT22;23612;50.894;10.700;2022-09-09T16:48:31;19.10;99.90
20528;DHT22;23612;50.894;10.700;2022-09-09T16:51:05;19.10;99.90
20528;DHT22;23612;50.894;10.700;2022-09-09T16:53:34;19.10;99.90
20528;DHT22;23612;50.894;10.700;2022-09-09T16:56:06;19.10;99.90
20528;DHT22;23612;50.894;10.700;2022-09-09T16:58:32;19.00;99.90
20528;DHT22;23612;50.894;10.700;2022-09-09T17:00:59;19.00;99.90
20528;DHT22;23612;50.894;10.700;2022-09-09T17:03:25;19.00;99.90
20528;DHT22;23612;50.894;10.700;2022-09-09T17:05:51;18.90;99.90
20528;DHT22;23612;50.894;10.700;2022-09-09T17:08:16;18.90;99.90
20528;DHT22;23612;50.894;10.700;2022-09-09T17:10:42;18.80;99.90
20528;DHT22;23612;50.894;10.700;2022-09-09T17:13:08;18.80;99.90
20528;DHT22;23612;50.894;10.700;2022-09-09T17:15:33;18.70;99.90
20528;DHT22;23612;50.894;10.700;2022-09-09T17:17:59;18.60;99.90
20528;DHT22;23612;50.894;10.700;2022-09-09T17:20:25;18.50;99.90
20528;DHT22;23612;50.894;10.700;2022-09-09T17:22:50;18.40;99.90